KIPT

Williamsport Regional Airport

Williamsport, Pennsylvania, USA
METAR KIPT 252154Z 25011KT 10SM CLR 31/09 A2983 RMK AO2 SLP096 T03110094
Observed Flight Rules
May-25 @ 21:54 UTC (47 minutes ago) Visual Flight Rules
Wind Visibility Clouds
250° at 11 knots 10 miles
  • Clear skies
Temperatures Readings
Current 31°C / 88°F
Dewpoint 9°C / 48°F
Humidity 25%
Altimeter 29.83" Hg
Pressure 1009.6 hPa
Elevation 164
METAR KIPT 252154Z 25011KT 10SM CLR 31/09 A2983 RMK AO2 SLP096 T03110094
Observed Flight Rules
May-25 @ 21:54 UTC
(47 minutes ago)
VFR
Wind Visibility
250° at 11 knots 10 miles
Clouds
  • Clear skies
Temperature Dewpoint
31°C / 88°F 9°C / 48°F
Humidity Altimeter Pressure
25% 29.83" Hg 1009.6 hPa